Time;durP1;ratioP1;P1;durP2;ratioP2;P2;SDS_P1;SDS_P2;PMS_P1;PMS_P2;Temp;Humidity;BMP_temperature;BMP_pressure;BME280_temperature;BME280_humidity;BME280_pressure;Samples;Min_cycle;Max_cycle;Signal;HPM_P1;HPM_P2
2021/04/05 05:30:20;;;;;;;30.02;14.28;;;;;;;1.30;64.36;99049.78;1687505;80;27143;31
2021/04/05 05:32:43;;;;;;;28.87;14.07;;;;;;;1.39;64.17;99050.77;1730861;82;25454;-50
2021/04/05 05:35:13;;;;;;;34.60;16.27;;;;;;;1.48;64.01;99053.63;1737134;81;25341;-53
2021/04/05 05:37:39;;;;;;;29.23;14.43;;;;;;;1.56;63.78;99041.59;1731321;82;25466;-51
2021/04/05 05:40:11;;;;;;;29.75;15.05;;;;;;;1.65;63.54;99062.55;1731297;82;26189;-51
2021/04/05 05:43:06;;;;;;;24.12;14.10;;;;;;;1.73;63.38;99058.51;1731188;82;25521;-50
2021/04/05 05:45:55;;;;;;;29.48;15.40;;;;;;;1.82;63.16;99062.14;1731250;82;25557;-53
2021/04/05 05:48:46;;;;;;;28.80;13.90;;;;;;;1.92;63.05;99049.26;1731221;82;26010;-53
2021/04/05 05:51:37;;;;;;;30.10;14.85;;;;;;;2.03;62.80;99046.21;1731212;81;25341;-49
2021/04/05 05:54:46;;;;;;;26.65;14.13;;;;;;;2.17;62.52;99049.00;1731259;81;25744;-53
2021/04/05 05:57:18;;;;;;;26.77;14.75;;;;;;;2.31;62.28;99038.44;1731195;82;25496;-49
2021/04/05 06:00:23;;;;;;;31.45;15.45;;;;;;;2.49;61.80;99036.91;1731229;82;25338;-52
2021/04/05 06:03:14;;;;;;;25.35;14.83;;;;;;;2.64;61.18;99043.94;1731090;82;25338;-50
2021/04/05 06:06:23;;;;;;;29.07;14.87;;;;;;;2.81;60.37;99039.44;1725598;82;25520;-51
2021/04/05 06:09:32;;;;;;;25.60;14.03;;;;;;;2.95;60.03;99026.16;1712946;82;25829;-54
2021/04/05 06:12:04;;;;;;;26.70;14.38;;;;;;;3.11;59.76;99018.70;1731173;82;29860;-52
2021/04/05 06:14:59;;;;;;;29.40;15.25;;;;;;;3.29;58.82;99007.20;1731281;82;25459;-52
2021/04/05 06:17:57;;;;;;;26.27;14.05;;;;;;;3.46;59.06;98996.52;1731292;82;25447;-52
2021/04/05 06:20:42;;;;;;;29.02;14.83;;;;;;;3.65;58.64;98988.44;1731321;81;25293;-52
2021/04/05 06:23:38;;;;;;;25.55;14.63;;;;;;;3.89;58.03;98982.36;1730525;82;25937;-53
2021/04/05 06:26:35;;;;;;;24.55;14.93;;;;;;;4.07;57.84;98978.02;1731133;81;25596;-53
2021/04/05 06:29:29;;;;;;;29.77;16.07;;;;;;;4.30;57.34;98979.44;1730866;82;25464;-54
2021/04/05 06:32:54;;;;;;;28.75;14.65;;;;;;;4.49;56.53;98977.45;1731217;81;25373;-54
2021/04/05 06:36:02;;;;;;;28.00;14.93;;;;;;;4.65;55.36;98988.62;1668776;85;25404;-56
2021/04/05 06:38:37;;;;;;;33.15;14.93;;;;;;;4.84;54.68;98961.67;1668771;86;25797;-55
2021/04/05 06:41:36;;;;;;;25.77;14.60;;;;;;;5.02;55.16;98960.45;1668747;86;25553;-51
2021/04/05 06:44:31;;;;;;;28.75;14.43;;;;;;;5.23;55.35;98946.03;1668674;86;25354;-50
2021/04/05 06:47:46;;;;;;;28.30;15.15;;;;;;;5.72;54.26;98951.48;1818298;78;34527;-55
2021/04/05 06:50:38;;;;;;;24.77;14.43;;;;;;;5.82;53.20;98957.91;1789491;80;25545;-55
2021/04/05 06:53:35;;;;;;;29.90;14.13;;;;;;;5.96;53.08;98941.76;1788478;80;25925;-50
2021/04/05 06:56:10;;;;;;;25.68;14.83;;;;;;;6.19;53.34;98927.67;1789383;79;25515;-53
2021/04/05 06:58:57;;;;;;;29.12;14.73;;;;;;;6.48;52.44;98927.64;1789411;80;25281;-54
2021/04/05 07:01:50;;;;;;;26.12;14.25;;;;;;;6.85;53.89;98929.48;1696299;84;25374;-51
2021/04/05 07:04:52;;;;;;;23.67;13.32;;;;;;;7.25;52.40;98923.34;1695409;84;25480;-54
2021/04/05 07:07:55;;;;;;;25.60;13.40;;;;;;;7.56;49.76;98914.77;1696355;84;25890;-51
2021/04/05 07:10:33;;;;;;;26.17;13.70;;;;;;;7.70;48.82;98902.47;1696298;84;25468;-52
2021/04/05 07:13:05;;;;;;;23.35;13.13;;;;;;;7.81;49.37;98909.83;1696180;84;25442;-52
2021/04/05 07:15:59;;;;;;;25.27;13.05;;;;;;;7.91;49.13;98898.48;1673179;84;25560;-52
2021/04/05 07:18:49;;;;;;;27.42;13.45;;;;;;;8.11;48.93;98892.91;1696280;84;25294;-53
2021/04/05 07:21:51;;;;;;;21.42;12.15;;;;;;;8.30;48.29;98899.20;1696137;84;25740;-53
2021/04/05 07:24:37;;;;;;;23.32;12.47;;;;;;;8.54;48.05;98893.19;1889428;76;34515;-51
2021/04/05 07:27:14;;;;;;;22.55;12.70;;;;;;;8.70;48.00;98883.92;1859810;77;25510;-53
2021/04/05 07:30:13;;;;;;;26.23;12.63;;;;;;;8.88;47.38;98871.09;1827011;77;26553;-51
2021/04/05 07:33:12;;;;;;;;;;;;;;;9.06;46.76;98864.41;1861788;77;25658;-52
2021/04/05 07:36:18;;;;;;;23.57;11.80;;;;;;;9.22;46.97;98857.02;1860060;77;25472;-51
2021/04/05 07:39:19;;;;;;;23.38;11.95;;;;;;;9.53;45.27;98867.28;1823266;77;25296;-52
2021/04/05 07:42:10;;;;;;;20.80;11.18;;;;;;;9.67;45.97;98853.45;1859853;77;25470;-52
2021/04/05 07:44:53;;;;;;;19.50;11.70;;;;;;;9.78;44.19;98855.94;1859970;77;25783;-50
2021/04/05 07:47:41;;;;;;;20.80;11.43;;;;;;;9.90;43.77;98847.03;1859791;77;25395;-53
2021/04/05 07:50:45;;;;;;;20.52;11.97;;;;;;;9.81;43.71;98851.78;1859920;77;25470;-51
2021/04/05 07:53:36;;;;;;;22.75;12.00;;;;;;;9.66;44.01;98823.55;1859909;77;25512;-53
2021/04/05 07:56:17;;;;;;;21.82;11.28;;;;;;;9.91;44.53;98820.27;1860123;77;25442;-53
2021/04/05 07:59:01;;;;;;;19.20;11.18;;;;;;;10.15;44.74;98811.86;1859932;77;25690;-52
2021/04/05 08:01:54;;;;;;;18.37;11.03;;;;;;;10.23;43.75;98792.83;1859847;77;25426;-51
2021/04/05 08:04:41;;;;;;;19.15;9.80;;;;;;;10.26;43.40;98794.05;1858693;77;25293;-52
2021/04/05 08:07:31;;;;;;;20.75;11.12;;;;;;;10.17;42.29;98817.73;1859877;77;25394;-54
2021/04/05 08:10:38;;;;;;;14.75;9.18;;;;;;;10.05;42.07;98806.39;1859975;77;25256;-52
2021/04/05 08:13:16;;;;;;;15.90;10.00;;;;;;;9.79;41.02;98768.41;1859974;77;25688;-51
2021/04/05 08:15:54;;;;;;;14.73;9.28;;;;;;;9.96;42.16;98784.11;1858355;77;25438;-53
2021/04/05 08:18:29;;;;;;;14.47;8.93;;;;;;;10.23;41.12;98778.52;1840819;77;25254;-55
2021/04/05 08:21:19;;;;;;;15.53;8.98;;;;;;;10.50;41.47;98748.59;1859856;77;25531;-53
2021/04/05 08:24:06;;;;;;;15.78;9.23;;;;;;;10.68;39.19;98749.06;1844951;77;25437;-52
2021/04/05 08:26:44;;;;;;;13.05;8.45;;;;;;;11.01;38.97;98743.31;1834613;78;25696;-54
2021/04/05 08:29:49;;;;;;;13.62;8.55;;;;;;;11.29;37.30;98776.83;1834574;78;25493;-55
2021/04/05 08:32:58;;;;;;;14.80;8.50;;;;;;;11.23;37.48;98733.59;1798210;79;25509;-52
2021/04/05 08:35:33;;;;;;;13.15;7.67;;;;;;;11.39;38.95;98722.15;1797867;79;25334;-55
2021/04/05 08:38:24;;;;;;;14.90;8.73;;;;;;;11.81;37.79;98746.47;1797518;79;25514;-50
2021/04/05 08:41:45;;;;;;;12.93;7.60;;;;;;;11.99;38.27;98725.98;1796697;79;25896;-53
2021/04/05 08:44:44;;;;;;;10.53;7.65;;;;;;;12.19;35.48;98730.84;1797431;79;25460;-53
2021/04/05 08:47:16;;;;;;;12.03;7.60;;;;;;;12.18;35.23;98721.71;1797806;79;25412;-55
2021/04/05 08:49:47;;;;;;;11.35;7.33;;;;;;;12.29;35.08;98724.04;1797700;79;25755;-53
2021/04/05 08:52:18;;;;;;;11.95;7.20;;;;;;;12.22;35.21;98704.94;1797705;79;25477;-55
2021/04/05 08:54:48;;;;;;;10.45;7.60;;;;;;;12.04;35.39;98691.83;1797666;79;25805;-55
2021/04/05 08:57:23;;;;;;;10.80;7.40;;;;;;;12.05;34.78;98692.03;1797614;79;25602;-53
2021/04/05 09:00:09;;;;;;;12.23;7.95;;;;;;;12.02;35.77;98671.64;1797730;79;25611;-51
2021/04/05 09:05:43;;;;;;;12.43;7.72;;;;;;;12.39;35.70;98670.58;1675335;84;25206;-52
2021/04/05 09:08:27;;;;;;;12.35;8.28;;;;;;;12.60;34.40;98665.31;1849585;76;35148;-50
2021/04/05 09:11:05;;;;;;;13.28;8.55;;;;;;;12.36;34.20;98646.13;1819674;78;25518;-52
2021/04/05 09:13:49;;;;;;;11.70;7.83;;;;;;;12.34;35.10;98643.77;1819546;78;25977;-55
2021/04/05 09:16:46;;;;;;;11.85;7.30;;;;;;;12.32;34.81;98640.64;1819557;78;25445;-55
2021/04/05 09:20:04;;;;;;;13.78;7.90;;;;;;;12.16;34.40;98635.34;1819649;78;25484;-54
2021/04/05 09:23:14;;;;;;;13.45;7.55;;;;;;;12.09;36.08;98608.11;1818098;78;25398;-51
2021/04/05 09:25:49;;;;;;;15.20;7.40;;;;;;;11.83;35.92;98601.97;1819466;78;25288;-51
2021/04/05 09:28:39;;;;;;;11.88;7.12;;;;;;;11.70;36.22;98600.00;1818960;78;25770;-52
2021/04/05 09:31:31;;;;;;;11.80;6.85;;;;;;;11.59;36.09;98598.42;1819116;78;25287;-53
2021/04/05 09:34:44;;;;;;;14.73;6.85;;;;;;;11.46;36.68;98596.44;1819649;78;25241;-50
2021/04/05 09:37:36;;;;;;;13.30;7.40;;;;;;;11.34;36.28;98624.97;1819561;78;25293;-50
2021/04/05 09:40:46;;;;;;;12.40;6.75;;;;;;;11.26;37.17;98602.98;1819462;78;25441;-53
2021/04/05 09:43:44;;;;;;;12.60;6.95;;;;;;;11.22;37.00;98606.97;1819528;78;25683;-51
2021/04/05 09:46:37;;;;;;;13.78;7.10;;;;;;;11.08;37.33;98603.36;1819448;78;25289;-53
2021/04/05 09:49:40;;;;;;;12.13;6.62;;;;;;;10.99;37.61;98587.33;1781249;80;25428;-53
2021/04/05 09:52:33;;;;;;;10.30;6.10;;;;;;;10.88;37.21;98603.09;1781178;80;25537;-54
2021/04/05 09:55:10;;;;;;;10.85;6.53;;;;;;;10.91;37.81;98578.83;1781273;80;25418;-55
2021/04/05 09:58:21;;;;;;;13.83;8.13;;;;;;;10.96;37.72;98579.91;1872898;76;30248;-51
2021/04/05 10:00:59;;;;;;;13.98;7.65;;;;;;;10.97;37.41;98565.84;1859773;77;25328;-54
2021/04/05 10:03:28;;;;;;;12.53;7.17;;;;;;;10.91;38.17;98572.64;1859922;77;26404;-51
2021/04/05 10:05:57;;;;;;;;;;;;;;;10.86;37.86;98555.34;1862654;77;25227;-51
2021/04/05 10:08:27;;;;;;;13.32;7.22;;;;;;;10.87;37.72;98555.56;1860019;77;25427;-51
2021/04/05 10:10:56;;;;;;;10.48;6.58;;;;;;;10.88;38.08;98550.35;1859952;77;25396;-55
2021/04/05 10:13:29;;;;;;;13.30;6.87;;;;;;;10.90;38.24;98549.45;1860059;77;25568;-54
2021/04/05 10:15:58;;;;;;;10.63;6.15;;;;;;;10.95;37.89;98538.36;1859961;77;25990;-52
2021/04/05 10:18:27;;;;;;;11.12;6.12;;;;;;;10.96;37.44;98543.39;1860017;77;25445;-52
2021/04/05 10:20:56;;;;;;;9.65;6.12;;;;;;;10.98;37.82;98515.98;1860173;77;25233;-54
2021/04/05 10:23:30;;;;;;;9.43;6.62;;;;;;;11.14;38.38;98513.23;1859900;77;25766;-52
2021/04/05 10:26:02;;;;;;;10.95;6.25;;;;;;;11.28;37.81;98507.32;1860026;77;25432;-53
2021/04/05 10:28:35;;;;;;;15.48;6.25;;;;;;;11.36;38.29;98500.91;1859930;77;25685;-55
2021/04/05 10:31:07;;;;;;;11.93;6.40;;;;;;;11.43;37.52;98511.87;1859988;77;25466;-53
2021/04/05 10:33:38;;;;;;;10.82;5.83;;;;;;;11.42;36.97;98514.93;1859836;77;25646;-54
2021/04/05 10:36:08;;;;;;;11.53;6.80;;;;;;;11.40;36.60;98505.81;1859888;77;25262;-52
2021/04/05 10:38:38;;;;;;;8.00;5.15;;;;;;;11.40;36.80;98490.92;1859941;77;25618;-53
2021/04/05 10:41:07;;;;;;;10.58;5.72;;;;;;;11.35;37.16;98506.87;1860072;77;26787;-52
2021/04/05 10:43:42;;;;;;;11.33;6.35;;;;;;;11.26;37.41;98484.67;1859921;77;25239;-51
2021/04/05 10:46:19;;;;;;;8.98;5.62;;;;;;;11.23;37.54;98485.38;1844907;77;25640;-54
2021/04/05 10:48:58;;;;;;;10.23;5.90;;;;;;;11.21;37.72;98474.91;1859918;77;25453;-54
2021/04/05 10:51:33;;;;;;;13.00;5.53;;;;;;;11.22;38.26;98470.30;1859913;77;25322;-54
2021/04/05 10:54:07;;;;;;;12.07;6.15;;;;;;;11.24;37.88;98466.66;1859884;77;25686;-53
2021/04/05 10:56:42;;;;;;;8.25;5.60;;;;;;;11.25;37.52;98449.84;1846880;77;25416;-53
2021/04/05 10:59:38;;;;;;;12.78;5.62;;;;;;;11.36;37.19;98461.08;1825077;78;25440;-55
2021/04/05 11:02:14;;;;;;;9.43;5.75;;;;;;;11.48;37.29;98446.60;1824994;78;25500;-54
2021/04/05 11:04:44;;;;;;;9.58;5.97;;;;;;;11.53;37.31;98437.41;1824756;78;25436;-54
2021/04/05 11:07:12;;;;;;;10.28;6.37;;;;;;;11.53;37.20;98435.47;1825514;78;25750;-52
2021/04/05 11:09:42;;;;;;;12.68;5.95;;;;;;;11.54;37.41;98449.78;1824929;78;25464;-55
2021/04/05 11:12:12;;;;;;;14.95;6.28;;;;;;;11.53;37.11;98430.64;1824867;78;25466;-54
2021/04/05 11:14:42;;;;;;;11.68;6.15;;;;;;;11.55;37.40;98409.39;1820864;78;25445;-54
2021/04/05 11:17:11;;;;;;;16.93;6.05;;;;;;;11.60;37.75;98407.73;1825282;78;25488;-51
2021/04/05 11:19:49;;;;;;;10.68;5.10;;;;;;;11.59;37.04;98407.52;1825310;78;25687;-54
2021/04/05 11:22:21;;;;;;;8.40;5.75;;;;;;;11.62;37.39;98393.84;1823805;78;25335;-55
2021/04/05 11:25:07;;;;;;;12.55;6.53;;;;;;;11.61;37.02;98416.64;1825356;78;25497;-56
2021/04/05 11:27:42;;;;;;;10.28;5.60;;;;;;;11.56;36.82;98385.22;1823691;78;26012;-52
2021/04/05 11:30:12;;;;;;;10.63;5.72;;;;;;;11.58;36.94;98387.79;1825111;78;25512;-53
2021/04/05 11:32:40;;;;;;;12.23;5.55;;;;;;;11.67;37.60;98376.70;1824990;78;25912;-54
2021/04/05 11:35:11;;;;;;;10.58;5.33;;;;;;;11.89;37.62;98365.62;1824949;78;25240;-53
2021/04/05 11:37:40;;;;;;;9.83;5.28;;;;;;;12.13;37.68;98359.61;1824985;78;25363;-54
2021/04/05 11:40:14;;;;;;;11.93;6.10;;;;;;;12.33;36.76;98348.08;1825171;78;25312;-55
2021/04/05 11:42:46;;;;;;;11.43;5.80;;;;;;;12.42;36.89;98358.06;1824974;78;25317;-55
2021/04/05 11:45:28;;;;;;;12.00;5.92;;;;;;;12.53;36.37;98345.98;1825003;78;25682;-52
2021/04/05 11:47:56;;;;;;;12.07;6.15;;;;;;;12.50;35.97;98357.00;1824947;78;25489;-52
2021/04/05 11:50:26;;;;;;;12.05;5.70;;;;;;;12.44;36.13;98354.40;1825013;78;25398;-55
2021/04/05 11:53:10;;;;;;;15.83;6.47;;;;;;;12.39;36.27;98343.88;1824883;78;25474;-55
2021/04/05 11:55:39;;;;;;;12.58;5.72;;;;;;;12.28;36.42;98347.81;1825056;78;25300;-53
2021/04/05 11:58:23;;;;;;;10.20;5.50;;;;;;;12.17;36.61;98337.39;1854233;76;25681;-54
2021/04/05 12:01:03;;;;;;;9.65;5.00;;;;;;;12.07;36.52;98353.73;1858971;77;25481;-56
2021/04/05 12:03:45;;;;;;;10.70;5.37;;;;;;;11.94;36.78;98349.09;1859299;77;25465;-53
2021/04/05 12:06:20;;;;;;;10.58;5.25;;;;;;;11.86;37.01;98369.06;1859257;77;25496;-54
2021/04/05 12:08:57;;;;;;;10.13;6.42;;;;;;;11.76;37.12;98357.49;1859334;77;25321;-54
2021/04/05 12:11:31;;;;;;;11.28;5.50;;;;;;;11.70;37.16;98370.57;1859253;77;25692;-56
2021/04/05 12:14:03;;;;;;;11.80;5.75;;;;;;;11.65;37.33;98355.21;1859232;75;25725;-56
2021/04/05 12:16:31;;;;;;;10.65;5.70;;;;;;;11.65;37.88;98341.67;1858449;77;25258;-56
2021/04/05 12:18:59;;;;;;;13.30;5.25;;;;;;;11.71;37.55;98342.91;1859217;77;25669;-53
2021/04/05 12:21:33;;;;;;;11.30;5.00;;;;;;;11.77;37.85;98330.63;1859151;77;25326;-53
2021/04/05 12:24:05;;;;;;;14.65;5.60;;;;;;;11.85;37.73;98339.08;1859235;77;26850;-53
2021/04/05 12:26:35;;;;;;;14.03;6.20;;;;;;;11.87;36.92;98324.59;1859211;77;25431;-54
2021/04/05 12:29:05;;;;;;;11.90;4.97;;;;;;;11.87;36.49;98321.88;1859307;77;25365;-55
2021/04/05 12:31:34;;;;;;;10.00;5.12;;;;;;;11.88;36.38;98316.65;1859194;77;25436;-55
2021/04/05 12:34:14;;;;;;;11.03;5.37;;;;;;;11.89;37.01;98320.16;1859471;77;25493;-51
2021/04/05 12:36:43;;;;;;;12.45;5.92;;;;;;;11.92;37.13;98311.34;1859323;77;25697;-56
2021/04/05 12:39:12;;;;;;;10.43;5.08;;;;;;;12.00;37.21;98294.59;1859179;77;25550;-53
2021/04/05 12:41:45;;;;;;;12.90;5.67;;;;;;;12.08;37.36;98300.31;1859186;77;25275;-53
2021/04/05 12:44:20;;;;;;;14.28;6.65;;;;;;;12.11;37.20;98295.52;1859177;77;25560;-55
2021/04/05 12:46:52;;;;;;;13.30;6.22;;;;;;;12.09;36.82;98297.83;1858539;77;25239;-52
2021/04/05 12:49:23;;;;;;;9.95;5.67;;;;;;;12.06;36.96;98297.97;1859236;77;25685;-54
2021/04/05 12:52:00;;;;;;;12.13;5.70;;;;;;;12.06;37.09;98297.20;1859048;77;25495;-53
2021/04/05 12:54:30;;;;;;;14.38;6.25;;;;;;;12.06;37.04;98294.48;1859229;77;25248;-52
2021/04/05 12:57:02;;;;;;;11.75;6.42;;;;;;;12.09;37.49;98289.70;1850570;77;25464;-52
2021/04/05 12:59:29;;;;;;;11.38;5.58;;;;;;;12.16;37.40;98281.65;1825033;78;25338;-54
2021/04/05 13:02:18;;;;;;;10.68;5.67;;;;;;;12.23;37.33;98271.47;1824912;78;25841;-53
2021/04/05 13:05:12;;;;;;;9.53;5.42;;;;;;;12.26;37.49;98279.64;1825038;78;25437;-53
2021/04/05 13:08:05;;;;;;;12.50;5.45;;;;;;;12.27;36.96;98260.86;1825091;78;25234;-50
2021/04/05 13:10:39;;;;;;;15.58;5.70;;;;;;;12.26;36.68;98259.87;1824873;78;25458;-56
2021/04/05 13:13:13;;;;;;;13.03;6.35;;;;;;;12.24;36.80;98259.46;1824901;78;25315;-54
2021/04/05 13:15:45;;;;;;;10.10;5.25;;;;;;;12.23;37.15;98252.50;1824958;78;25796;-52
2021/04/05 13:18:25;;;;;;;11.20;5.55;;;;;;;12.26;37.19;98248.47;1822929;78;25296;-55
2021/04/05 13:21:07;;;;;;;12.82;5.92;;;;;;;12.27;36.29;98236.46;1825012;78;25402;-54
2021/04/05 13:23:43;;;;;;;11.10;5.50;;;;;;;12.24;36.65;98225.03;1824775;78;25503;-53
2021/04/05 13:26:13;;;;;;;14.03;5.90;;;;;;;12.26;36.75;98239.54;1824133;78;25438;-51
2021/04/05 13:28:42;;;;;;;12.75;5.75;;;;;;;12.24;36.71;98229.65;1825101;78;25676;-53
2021/04/05 13:31:12;;;;;;;12.20;4.72;;;;;;;12.21;36.29;98223.05;1824948;78;25288;-53
2021/04/05 13:33:43;;;;;;;9.33;4.67;;;;;;;12.23;36.75;98221.33;1825071;78;25288;-55
2021/04/05 13:36:15;;;;;;;14.30;5.50;;;;;;;12.21;37.15;98213.56;1824884;78;25257;-56
2021/04/05 13:38:47;;;;;;;17.00;6.58;;;;;;;12.19;36.77;98221.84;1824464;78;25230;-55
2021/04/05 13:41:18;;;;;;;13.05;4.70;;;;;;;12.18;37.17;98220.30;1814536;78;25691;-55
2021/04/05 13:43:49;;;;;;;10.10;5.00;;;;;;;12.18;36.78;98215.66;1824833;78;25434;-53
2021/04/05 13:46:18;;;;;;;10.88;5.42;;;;;;;12.17;37.04;98210.02;1824951;78;25502;-54
2021/04/05 13:49:05;;;;;;;15.53;5.20;;;;;;;12.18;37.22;98209.47;1825093;78;34699;-56
2021/04/05 13:51:32;;;;;;;7.78;4.72;;;;;;;12.17;36.87;98208.66;1824891;78;25487;-52
2021/04/05 13:54:03;;;;;;;13.05;5.03;;;;;;;12.15;37.21;98191.41;1824924;78;25670;-52
2021/04/05 13:56:34;;;;;;;9.33;4.25;;;;;;;12.12;36.99;98194.89;1824819;78;25438;-54
2021/04/05 13:59:06;;;;;;;13.80;5.45;;;;;;;12.09;37.04;98206.46;1824899;76;25315;-52
2021/04/05 14:01:36;;;;;;;8.70;4.65;;;;;;;12.06;37.04;98192.88;1824611;78;25350;-55
2021/04/05 14:04:05;;;;;;;14.40;4.87;;;;;;;12.08;37.46;98206.83;1795013;78;25251;-52
2021/04/05 14:06:44;;;;;;;16.67;4.70;;;;;;;12.07;37.47;98189.00;1825036;78;25892;-52
2021/04/05 14:09:14;;;;;;;17.48;5.60;;;;;;;12.06;37.63;98182.81;1824959;78;25491;-52
2021/04/05 14:11:54;;;;;;;14.80;5.70;;;;;;;12.08;37.81;98182.44;1824907;78;25468;-51
2021/04/05 14:14:28;;;;;;;12.28;4.67;;;;;;;12.09;37.82;98189.44;1824086;78;25480;-54
2021/04/05 14:17:16;;;;;;;16.40;5.10;;;;;;;12.09;37.89;98178.59;1824895;78;25612;-55
2021/04/05 14:20:09;;;;;;;13.13;5.92;;;;;;;12.09;37.91;98185.37;1775828;80;25783;-53
2021/04/05 14:22:40;;;;;;;11.73;5.20;;;;;;;12.09;38.11;98172.59;1775726;80;25384;-53
2021/04/05 14:25:21;;;;;;;12.45;5.40;;;;;;;12.15;38.25;98162.19;1849515;76;34576;-54
2021/04/05 14:28:08;;;;;;;12.18;5.40;;;;;;;12.08;38.39;98149.92;1819636;78;25245;-54
2021/04/05 14:30:59;;;;;;;11.20;4.67;;;;;;;12.10;38.57;98142.97;1819643;78;25685;-55
2021/04/05 14:33:29;;;;;;;13.25;5.60;;;;;;;12.14;38.60;98157.35;1818499;78;25418;-53
2021/04/05 14:36:03;;;;;;;11.65;5.53;;;;;;;12.14;38.63;98144.39;1819724;78;25176;-51
2021/04/05 14:38:34;;;;;;;11.03;5.37;;;;;;;12.14;38.68;98133.55;1819559;78;25343;-55
2021/04/05 14:41:14;;;;;;;14.78;5.92;;;;;;;12.13;38.48;98131.39;1819629;78;25275;-54
2021/04/05 14:43:51;;;;;;;11.75;5.40;;;;;;;12.15;38.77;98143.22;1818881;78;25971;-51
2021/04/05 14:46:18;;;;;;;9.90;5.60;;;;;;;12.14;38.68;98113.22;1819502;78;25335;-53
2021/04/05 14:48:48;;;;;;;11.22;5.58;;;;;;;12.15;38.85;98107.98;1819514;78;25230;-55
2021/04/05 14:51:28;;;;;;;11.88;5.30;;;;;;;12.19;38.98;98122.38;1819778;78;25323;-55
2021/04/05 14:54:04;;;;;;;10.88;5.28;;;;;;;12.17;39.34;98095.42;1819510;78;25390;-56
2021/04/05 14:56:35;;;;;;;14.05;5.33;;;;;;;12.18;39.17;98109.96;1819545;78;25763;-54
2021/04/05 14:59:04;;;;;;;13.65;6.33;;;;;;;12.18;39.00;98106.48;1819522;78;25307;-54
2021/04/05 15:01:38;;;;;;;18.30;5.45;;;;;;;12.15;39.06;98101.98;1819486;78;25085;-53
2021/04/05 15:04:12;;;;;;;10.10;4.30;;;;;;;12.14;39.07;98095.02;1818764;78;25253;-52
2021/04/05 15:06:59;;;;;;;8.68;4.80;;;;;;;12.12;37.59;98099.25;1819680;78;25279;-55
2021/04/05 15:09:32;;;;;;;11.85;4.40;;;;;;;12.11;37.85;98094.99;1819537;78;25681;-56
2021/04/05 15:12:08;;;;;;;8.53;3.85;;;;;;;12.08;37.04;98135.80;1819390;78;25312;-53
2021/04/05 15:14:42;;;;;;;13.32;5.00;;;;;;;12.04;36.94;98118.73;1814059;78;25423;-54
2021/04/05 15:17:13;;;;;;;12.07;4.12;;;;;;;12.01;37.66;98112.70;1818789;78;25407;-55
2021/04/05 15:19:43;;;;;;;11.65;5.12;;;;;;;11.95;37.59;98088.43;1819682;78;25245;-55
2021/04/05 15:22:15;;;;;;;12.65;5.12;;;;;;;11.89;37.98;98112.34;1819435;78;25671;-54
2021/04/05 15:24:46;;;;;;;8.00;4.22;;;;;;;11.87;38.33;98123.36;1819355;78;25515;-53
2021/04/05 15:27:15;;;;;;;8.23;3.75;;;;;;;11.84;38.79;98109.97;1819580;78;25509;-56
2021/04/05 15:29:44;;;;;;;6.17;3.60;;;;;;;11.80;38.37;98104.30;1788081;78;25323;-56
2021/04/05 15:32:14;;;;;;;8.48;3.62;;;;;;;11.74;38.58;98114.11;1819632;78;25449;-52
2021/04/05 15:34:43;;;;;;;13.32;4.92;;;;;;;11.69;38.87;98094.71;1819915;78;25781;-51
2021/04/05 15:37:17;;;;;;;8.70;4.05;;;;;;;11.63;39.17;98127.31;1819025;78;25422;-55
2021/04/05 15:39:53;;;;;;;10.78;4.00;;;;;;;11.57;39.26;98116.03;1819104;78;25289;-56
2021/04/05 15:42:26;;;;;;;15.98;4.42;;;;;;;11.49;39.29;98109.77;1818842;78;25489;-55
2021/04/05 15:45:13;;;;;;;7.75;3.90;;;;;;;11.44;39.26;98118.77;1818971;78;25434;-55
2021/04/05 15:47:48;;;;;;;11.83;4.20;;;;;;;11.31;39.68;98142.01;1818433;78;25923;-54
2021/04/05 15:50:35;;;;;;;11.90;4.12;;;;;;;11.14;40.94;98150.08;1817620;78;25482;-55
2021/04/05 15:53:21;;;;;;;7.90;3.62;;;;;;;11.00;41.38;98154.72;1818881;78;25439;-57
2021/04/05 15:55:51;;;;;;;14.38;6.58;;;;;;;10.87;41.40;98133.06;1817826;78;25469;-56
2021/04/05 15:58:28;;;;;;;10.70;4.42;;;;;;;10.76;41.64;98134.81;1818990;78;25315;-55
2021/04/05 16:01:02;;;;;;;13.20;5.05;;;;;;;10.67;41.56;98118.84;1818938;78;25746;-56
2021/04/05 16:03:52;;;;;;;8.95;4.03;;;;;;;10.59;41.45;98143.64;1818712;78;25723;-55
2021/04/05 16:06:35;;;;;;;8.38;3.80;;;;;;;10.59;41.52;98121.22;1818905;78;25412;-57
2021/04/05 16:09:09;;;;;;;7.78;4.08;;;;;;;10.57;41.53;98127.56;1818093;78;25504;-56
2021/04/05 16:11:57;;;;;;;10.23;5.00;;;;;;;10.56;41.65;98114.62;1819035;78;25430;-57
2021/04/05 16:14:32;;;;;;;14.30;6.47;;;;;;;10.56;41.78;98138.19;1818869;78;25888;-57
2021/04/05 16:17:02;;;;;;;13.13;6.37;;;;;;;10.48;43.84;98135.14;1818787;78;25580;-60
2021/04/05 16:19:52;;;;;;;12.47;7.25;;;;;;;10.41;45.78;98156.84;1818993;78;25459;-55
2021/04/05 16:22:28;;;;;;;23.18;8.83;;;;;;;10.29;46.13;98173.20;1818856;78;25447;-54
2021/04/05 16:25:00;;;;;;;19.77;9.68;;;;;;;10.08;47.65;98170.90;1818527;78;25430;-57
2021/04/05 16:27:30;;;;;;;20.37;8.90;;;;;;;9.87;49.14;98183.39;1818936;78;25684;-57
2021/04/05 16:30:02;;;;;;;18.95;10.50;;;;;;;9.68;49.70;98182.83;1818837;78;25257;-54
2021/04/05 16:32:36;;;;;;;15.28;9.40;;;;;;;9.46;52.29;98178.89;1818604;78;25304;-54
2021/04/05 16:35:06;;;;;;;15.05;9.28;;;;;;;9.22;51.49;98187.42;1787362;78;25463;-54
2021/04/05 16:37:40;;;;;;;15.70;9.58;;;;;;;9.02;54.05;98192.55;1819040;78;25516;-57
2021/04/05 16:40:13;;;;;;;14.40;8.88;;;;;;;8.81;56.70;98199.56;1818928;78;26601;-56
2021/04/05 16:42:51;;;;;;;19.75;9.83;;;;;;;8.62;54.91;98213.73;1817210;78;25777;-55
2021/04/05 16:45:24;;;;;;;17.75;9.80;;;;;;;8.47;55.28;98215.27;1818836;78;25379;-56
2021/04/05 16:47:54;;;;;;;16.65;9.53;;;;;;;8.35;56.33;98222.81;1818954;78;25496;-55
2021/04/05 16:50:32;;;;;;;17.20;8.53;;;;;;;8.25;55.93;98216.58;1819021;78;25512;-56
2021/04/05 16:53:09;;;;;;;13.25;6.72;;;;;;;8.15;58.29;98215.92;1818851;78;26688;-53
2021/04/05 16:55:37;;;;;;;9.43;6.05;;;;;;;7.99;58.70;98233.39;1754662;80;25659;-56
2021/04/05 16:58:21;;;;;;;6.62;3.27;;;;;;;7.81;62.60;98232.09;1780669;80;25564;-52
2021/04/05 17:00:49;;;;;;;5.15;3.12;;;;;;;7.55;62.27;98240.56;1745991;82;25462;-55
2021/04/05 17:03:26;;;;;;;6.12;3.47;;;;;;;7.24;64.85;98255.37;1780592;80;25588;-56
2021/04/05 17:06:06;;;;;;;7.30;4.28;;;;;;;6.95;65.03;98256.34;1780645;80;25687;-55
2021/04/05 17:09:03;;;;;;;3.87;3.45;;;;;;;6.73;65.69;98269.86;1889098;76;34626;-57
2021/04/05 17:11:46;;;;;;;8.78;4.47;;;;;;;6.50;64.97;98272.70;1860227;77;25437;-56
2021/04/05 17:14:22;;;;;;;5.83;4.03;;;;;;;6.32;69.59;98272.09;1860006;77;25900;-55
2021/04/05 17:17:06;;;;;;;7.35;3.45;;;;;;;6.19;67.08;98281.20;1859888;77;25436;-54
2021/04/05 17:19:48;;;;;;;5.58;3.87;;;;;;;6.00;69.87;98297.20;1859212;77;25434;-55
2021/04/05 17:22:47;;;;;;;7.12;4.62;;;;;;;5.80;71.12;98283.97;1859873;77;25535;-55
2021/04/05 17:25:37;;;;;;;6.80;4.25;;;;;;;5.66;70.11;98295.52;1859787;77;25491;-54
2021/04/05 17:28:14;;;;;;;11.38;5.50;;;;;;;5.53;69.76;98305.36;1854511;77;25783;-55
2021/04/05 17:30:48;;;;;;;8.03;5.30;;;;;;;5.48;68.73;98307.66;1860019;77;25405;-54
2021/04/05 17:33:19;;;;;;;5.95;4.72;;;;;;;5.42;71.35;98305.72;1859886;77;25484;-55
2021/04/05 17:35:49;;;;;;;9.48;5.20;;;;;;;5.30;71.48;98306.19;1860391;77;25288;-52
2021/04/05 17:38:31;;;;;;;;;;;;;;;5.19;71.26;98312.44;1830351;77;25079;-54
2021/04/05 17:41:27;;;;;;;12.88;7.42;;;;;;;5.10;72.02;98315.16;1859983;77;25680;-54
2021/04/05 17:44:02;;;;;;;5.58;3.02;;;;;;;5.04;71.57;98351.30;1859896;77;25421;-56
2021/04/05 17:46:55;;;;;;;2.52;2.20;;;;;;;4.88;70.27;98347.53;1856803;77;25246;-53
2021/04/05 17:49:42;;;;;;;5.87;2.60;;;;;;;4.68;69.91;98359.94;1858625;77;25353;-55
2021/04/05 17:52:49;;;;;;;4.78;3.05;;;;;;;4.40;69.10;98362.70;1859830;77;25263;-56
2021/04/05 17:55:27;;;;;;;4.42;3.10;;;;;;;4.18;69.62;98364.97;1860037;77;25781;-56
2021/04/05 17:58:02;;;;;;;5.33;3.10;;;;;;;3.97;70.08;98373.59;1859804;77;25448;-54
2021/04/05 18:00:51;;;;;;;6.62;3.75;;;;;;;3.82;69.98;98377.48;1859719;77;25465;-53
2021/04/05 18:03:26;;;;;;;5.97;4.28;;;;;;;3.70;70.59;98392.78;1859765;77;25426;-53